Coastal Inspiration — CFN4970 — position and weather

sailwx.info

Track history (hours):
 
Tides and Currents Weather Stations Pressure Air Temp Water Temp Dewpoint Dewpoint Depression Visibility Wind Speed Wind Dir Waves Ship Positions

Coastal Inspiration

Last reported at 2015-May-03 15:34 UTC. Time now 2015-May-03 16:51 UTC.
Position N 49°10' W 123°53'.

Length 160 m; draft 6 m.

Type: Passenger vessel. MMSI: 316011408.

Date/timePositionNaut miles runAvg speedWind from/ knotsBaromVisibWave heightAir tempDewpointWater temp
2015-May-03 15:34N 49°10' W 123°53'0 0.0
2015-May-03 14:34N 49°10' W 123°53'0 0.0
2015-May-03 13:33N 49°10' W 123°53'0 0.0
2015-May-03 12:32N 49°10' W 123°53'0 0.0
2015-May-03 11:25N 49°10' W 123°53'0 0.0
2015-May-03 10:29N 49°10' W 123°53'0 0.0
2015-May-03 09:33N 49°10' W 123°53'0 0.0
2015-May-03 08:33N 49°10' W 123°53'0 0.0
2015-May-03 07:33N 49°10' W 123°53'0 0.0
2015-May-03 06:33N 49°10' W 123°53'0 0.0
2015-May-03 05:26N 49°10' W 123°53'2 0.8
2015-May-03 02:33N 49°12' W 123°53'1918.5
2015-May-03 01:33N 49°06' W 123°26'1313.2
2015-May-03 00:33N 49°00' W 123°08'1010.6
2015-May-02 23:33N 49°03' W 123°23'2019.5
2015-May-02 22:34N 49°13' W 123°49'3 2.8
2015-May-02 21:33N 49°12' W 123°53'1818.0
2015-May-02 20:33N 49°07' W 123°27'1413.9
2015-May-02 19:34N 49°00' W 123°08'1212.1
2015-May-02 18:33N 49°04' W 123°25'1919.3
2015-May-02 17:33N 49°12' W 123°52'2 2.5
2015-May-02 16:34N 49°13' W 123°49'1918.6
2015-May-02 15:33N 49°05' W 123°23'1110.9
2015-May-02 14:33N 49°00' W 123°08'1211.6
2015-May-02 13:34N 49°03' W 123°25'1818.3
2015-May-02 12:33N 49°13' W 123°49'4 3.9
2015-May-02 11:26N 49°10' W 123°53'0 0.0
2015-May-02 08:19N 49°10' W 123°53'5 6.7
2015-May-02 07:33N 49°13' W 123°48'1818.1
2015-May-02 06:33N 49°05' W 123°23'1110.8
2015-May-02 05:33N 49°00' W 123°08'1413.6
2015-May-02 04:33N 49°05' W 123°27'1818.3
2015-May-02 03:33N 49°12' W 123°53'4 4.0
2015-May-02 02:33N 49°13' W 123°47'1918.8
2015-May-02 01:33N 49°05' W 123°22'1010.2
2015-May-02 00:34N 49°00' W 123°08'1413.9
2015-May-01 23:33N 49°05' W 123°28'1817.6
2015-May-01 22:33N 49°12' W 123°53'0 0.2
2015-May-01 21:33N 49°13' W 123°52'1818.5
2015-May-01 20:33N 49°07' W 123°26'1313.3
2015-May-01 19:33N 49°00' W 123°08'1111.4
2015-May-01 18:33N 49°03' W 123°25'1918.8
2015-May-01 17:33N 49°13' W 123°49'3 2.7
2015-May-01 16:34N 49°12' W 123°53'1817.8
2015-May-01 15:33N 49°07' W 123°27'1414.3
2015-May-01 14:34N 49°00' W 123°08'1211.7
2015-May-01 13:33N 49°04' W 123°25'1918.7
2015-May-01 12:33N 49°13' W 123°50'4 3.9
2015-May-01 11:33N 49°10' W 123°53'0 0.0
2015-May-01 10:26N 49°10' W 123°53'0 0.0
2015-May-01 09:32N 49°10' W 123°53'0 0.0
2015-May-01 08:31N 49°10' W 123°53'0 0.1
2015-May-01 07:33N 49°10' W 123°53'1616.2
2015-May-01 06:33N 49°07' W 123°29'1515.5
2015-May-01 05:34N 49°00' W 123°08'1312.4
2015-May-01 04:33N 49°04' W 123°26'1818.5
2015-May-01 03:33N 49°13' W 123°51'0 0.4
2015-May-01 02:33N 49°13' W 123°51'1817.6
2015-May-01 01:33N 49°06' W 123°25'1313.0
2015-May-01 00:33N 49°00' W 123°08'1313.3
2015-Apr-30 23:33N 49°05' W 123°27'1817.3
2015-Apr-30 22:33N 49°13' W 123°51'0 0.3
2015-Apr-30 21:33N 49°13' W 123°51'1818.5
2015-Apr-30 20:33N 49°06' W 123°25'1212.4
2015-Apr-30 19:33N 49°00' W 123°08'1212.2
2015-Apr-30 18:33N 49°04' W 123°26'1818.3
2015-Apr-30 17:34N 49°13' W 123°50'1 0.5
2015-Apr-30 16:33N 49°13' W 123°51'1818.0
2015-Apr-30 15:33N 49°06' W 123°26'1312.7
2015-Apr-30 14:33N 49°00' W 123°08'1212.4
2015-Apr-30 13:33N 49°04' W 123°26'1818.4
2015-Apr-30 12:33N 49°13' W 123°51'3 3.2
2015-Apr-30 11:33N 49°10' W 123°53'0 0.0
2015-Apr-30 10:32N 49°10' W 123°53'0 0.0
2015-Apr-30 09:33N 49°10' W 123°53'0 0.0
2015-Apr-30 08:34N 49°10' W 123°53'1 0.7
2015-Apr-30 07:34N 49°10' W 123°53'1716.9
2015-Apr-30 06:34N 49°07' W 123°28'1514.7
2015-Apr-30 05:33N 49°00' W 123°08'1211.7
2015-Apr-30 04:33N 49°04' W 123°25'1818.0
2015-Apr-30 03:34N 49°13' W 123°48'2 1.8
2015-Apr-30 02:33N 49°13' W 123°51'1918.6
2015-Apr-30 01:33N 49°05' W 123°25'1212.3
2015-Apr-30 00:34N 49°00' W 123°08'1414.0
2015-Apr-29 23:33N 49°05' W 123°28'1817.6
2015-Apr-29 22:33N 49°11' W 123°53'2 1.7
2015-Apr-29 21:34N 49°13' W 123°51'1918.7
2015-Apr-29 20:34N 49°06' W 123°25'1211.7
2015-Apr-29 19:31N 49°00' W 123°08'1212.9
2015-Apr-29 18:33N 49°04' W 123°26'1818.2
2015-Apr-29 17:33N 49°13' W 123°51'1 0.6
2015-Apr-29 16:33N 49°13' W 123°51'1818.0
2015-Apr-29 15:33N 49°06' W 123°26'1312.4
2015-Apr-29 14:29N 49°00' W 123°08'1212.4
2015-Apr-29 13:33N 49°04' W 123°25'1818.3
2015-Apr-29 12:34N 49°13' W 123°49'4 4.4
2015-Apr-29 11:33N 49°10' W 123°53'0 0.0
2015-Apr-29 10:32N 49°10' W 123°53'0 0.0
2015-Apr-29 09:32N 49°10' W 123°53'0 0.0
2015-Apr-29 08:32N 49°10' W 123°53'0 0.3
2015-Apr-29 07:33N 49°10' W 123°53'1616.5
2015-Apr-29 06:33N 49°07' W 123°29'1515.1
2015-Apr-29 05:33N 49°00' W 123°08'1312.7
2015-Apr-29 04:33N 49°04' W 123°26'1918.5
2015-Apr-29 03:33N 49°12' W 123°52'1 0.8
2015-Apr-29 02:33N 49°13' W 123°51'1919.3
2015-Apr-29 01:33N 49°05' W 123°24'1111.4
2015-Apr-29 00:33N 49°00' W 123°08'1514.7
2015-Apr-28 23:34N 49°05' W 123°29'1716.4
2015-Apr-28 22:32N 49°10' W 123°53'3 3.3
2015-Apr-28 21:33N 49°13' W 123°51'1919.3
2015-Apr-28 20:33N 49°06' W 123°24'1210.8
2015-Apr-28 19:28N 49°00' W 123°08'1213.6
2015-Apr-28 18:33N 49°04' W 123°26'1818.2
2015-Apr-28 17:33N 49°13' W 123°51'1 0.5
2015-Apr-28 16:33N 49°13' W 123°51'1818.2
2015-Apr-28 15:33N 49°06' W 123°26'1312.4
2015-Apr-28 14:32N 49°00' W 123°08'1212.2
2015-Apr-28 13:34N 49°04' W 123°25'1818.3
2015-Apr-28 12:33N 49°13' W 123°50'4 4.0
2015-Apr-28 11:33N 49°10' W 123°53'0 0.0
2015-Apr-28 10:27N 49°10' W 123°53'0 0.0
2015-Apr-28 08:26N 49°10' W 123°53'1 0.7
2015-Apr-28 07:33N 49°10' W 123°53'1717.0
2015-Apr-28 06:34N 49°07' W 123°28'1514.3
2015-Apr-28 05:32N 49°00' W 123°08'1313.1
2015-Apr-28 04:33N 49°04' W 123°27'1817.6
2015-Apr-28 03:33N 49°13' W 123°50'0 0.4
2015-Apr-28 02:33N 49°13' W 123°50'1817.6
2015-Apr-28 01:34N 49°06' W 123°25'1312.0
2015-Apr-28 00:30N 49°00' W 123°08'1515.4
2015-Apr-27 23:33N 49°05' W 123°29'1716.5
2015-Apr-27 22:32N 49°11' W 123°53'2 2.4
2015-Apr-27 21:33N 49°13' W 123°52'1818.4
2015-Apr-27 20:33N 49°05' W 123°26'1312.5
2015-Apr-27 19:33N 49°00' W 123°08'1212.1
2015-Apr-27 18:33N 49°04' W 123°25'1818.2
2015-Apr-27 17:33N 49°13' W 123°50'1 1.4
2015-Apr-27 16:32N 49°12' W 123°52'1818.0
2015-Apr-27 15:33N 49°06' W 123°27'1413.4
2015-Apr-27 14:32N 49°00' W 123°08'1212.2
2015-Apr-27 13:33N 49°04' W 123°25'1818.2
2015-Apr-27 12:33N 49°13' W 123°50'4 3.5
2015-Apr-27 11:24N 49°10' W 123°53'0 0.0
2015-Apr-27 10:32N 49°10' W 123°53'0 0.0
2015-Apr-27 09:11N 49°10' W 123°53'0 0.0
2015-Apr-27 08:31N 49°10' W 123°53'4 3.8
2015-Apr-27 07:33N 49°13' W 123°51'2020.4
2015-Apr-27 06:34N 49°04' W 123°22'1010.1
2015-Apr-27 05:33N 49°00' W 123°08'1413.7
2015-Apr-27 04:34N 49°05' W 123°27'1818.0
2015-Apr-27 03:34N 49°11' W 123°53'5 4.6
2015-Apr-27 02:33N 49°13' W 123°47'2020.5
2015-Apr-27 01:33N 49°03' W 123°19'8 7.8
2015-Apr-27 00:33N 49°00' W 123°08'1514.5
2015-Apr-26 23:33N 49°05' W 123°29'1717.0
2015-Apr-26 22:34N 49°11' W 123°53'3 2.5
2015-Apr-26 21:33N 49°13' W 123°51'1919.4
2015-Apr-26 20:33N 49°05' W 123°24'1111.4
2015-Apr-26 19:34N 49°00' W 123°08'1312.6
2015-Apr-26 18:33N 49°04' W 123°26'1818.1
2015-Apr-26 17:33N 49°13' W 123°50'3 3.4
2015-Apr-26 16:33N 49°10' W 123°53'0 0.1
2015-Apr-26 15:33N 49°10' W 123°53'0 0.0
2015-Apr-26 13:16N 49°10' W 123°53'0 0.0
2015-Apr-26 12:31N 49°10' W 123°53'0 0.0
2015-Apr-26 10:23N 49°10' W 123°53'0 0.0
2015-Apr-26 09:33N 49°10' W 123°53'0 0.0
2015-Apr-26 08:23N 49°10' W 123°53'0 0.0
2015-Apr-26 07:33N 49°10' W 123°53'0 0.0
2015-Apr-26 06:33N 49°10' W 123°53'0 0.0
2015-Apr-26 05:33N 49°10' W 123°53'0 0.0
2015-Apr-26 04:32N 49°10' W 123°53'0 0.0
2015-Apr-26 03:33N 49°10' W 123°53'2 2.4
2015-Apr-26 02:33N 49°12' W 123°53'1818.1
2015-Apr-26 01:33N 49°06' W 123°27'1413.9
2015-Apr-26 00:34N 49°00' W 123°08'1211.9
2015-Apr-25 23:33N 49°04' W 123°25'1818.2
2015-Apr-25 22:34N 49°13' W 123°49'4 3.8
2015-Apr-25 21:33N 49°10' W 123°53'1716.7
2015-Apr-25 20:33N 49°07' W 123°28'1514.9
2015-Apr-25 19:34N 49°00' W 123°08'1212.1
2015-Apr-25 18:33N 49°04' W 123°26'1818.3
2015-Apr-25 17:34N 49°13' W 123°50'1 1.1
2015-Apr-25 16:33N 49°13' W 123°52'1818.4
2015-Apr-25 15:33N 49°06' W 123°25'1312.7
2015-Apr-25 14:33N 49°00' W 123°08'1312.7
2015-Apr-25 13:33N 49°04' W 123°26'1817.5
2015-Apr-25 12:33N 49°13' W 123°50'4 2.1
2015-Apr-25 10:33N 49°10' W 123°53'0 0.0
2015-Apr-25 09:33N 49°10' W 123°53'0 0.0
2015-Apr-25 08:33N 49°10' W 123°53'1 1.1
2015-Apr-25 07:33N 49°11' W 123°53'1716.9
2015-Apr-25 06:34N 49°08' W 123°28'1514.9
2015-Apr-25 05:33N 49°00' W 123°08'1211.7
2015-Apr-25 04:33N 49°04' W 123°25'1918.7
2015-Apr-25 03:33N 49°13' W 123°50'1 1.0
2015-Apr-25 02:33N 49°13' W 123°51'1919.3
2015-Apr-25 01:33N 49°06' W 123°24'1211.7
2015-Apr-25 00:33N 49°00' W 123°08'1313.4
2015-Apr-24 23:33N 49°04' W 123°27'1818.5
2015-Apr-24 22:34N 49°12' W 123°53'2 1.5
2015-Apr-24 21:34N 49°13' W 123°51'1918.9
2015-Apr-24 20:33N 49°06' W 123°24'1211.8
2015-Apr-24 19:33N 49°00' W 123°08'1211.8
2015-Apr-24 18:33N 49°04' W 123°25'1918.6
2015-Apr-24 17:33N 49°13' W 123°50'1 1.3
2015-Apr-24 16:33N 49°13' W 123°52'1818.4
2015-Apr-24 15:34N 49°06' W 123°26'1312.9
2015-Apr-24 14:33N 49°00' W 123°08'1313.2
2015-Apr-24 13:33N 49°04' W 123°27'1717.5
2015-Apr-24 12:33N 49°13' W 123°50'4 3.7
2015-Apr-24 11:33N 49°10' W 123°53'0 0.1
2015-Apr-24 10:33N 49°10' W 123°53'0 0.0
2015-Apr-24 09:31N 49°10' W 123°53'0 0.0
2015-Apr-24 08:24N 49°10' W 123°53'1 1.7
2015-Apr-24 07:33N 49°11' W 123°53'1717.3
2015-Apr-24 06:33N 49°07' W 123°28'1514.5
2015-Apr-24 05:33N 49°00' W 123°08'1212.4
2015-Apr-24 04:33N 49°04' W 123°26'1919.1
2015-Apr-24 03:33N 49°12' W 123°52'2 1.7
2015-Apr-24 02:34N 49°13' W 123°50'2020.0
2015-Apr-24 01:33N 49°05' W 123°22'1010.3
2015-Apr-24 00:34N 49°00' W 123°08'1514.5
2015-Apr-23 23:33N 49°06' W 123°29'1717.1
2015-Apr-23 22:33N 49°11' W 123°53'2 2.2
2015-Apr-23 21:33N 49°13' W 123°51'1919.0
2015-Apr-23 20:33N 49°05' W 123°24'1211.4
2015-Apr-23 19:33N 49°00' W 123°08'1312.8
2015-Apr-23 18:34N 49°04' W 123°26'1818.4
2015-Apr-23 17:34N 49°13' W 123°51'0 0.3
2015-Apr-23 16:33N 49°13' W 123°51'1818.5
2015-Apr-23 15:34N 49°06' W 123°25'  
Track history (hours):
 
Tides and Currents Weather Stations Pressure Air Temp Water Temp Dewpoint Dewpoint Depression Visibility Wind Speed Wind Dir Waves Ship Positions

Coastal Inspiration

Last reported at 2015-May-03 15:34 UTC. Time now 2015-May-03 16:51 UTC.
Position N 49°10' W 123°53'.

Length 160 m; draft 6 m.

Type: Passenger vessel. MMSI: 316011408.

Date/timePositionNaut miles runAvg speedWind from/ knotsBaromVisibWave heightAir tempDewpointWater temp
2015-May-03 15:34N 49°10' W 123°53'0 0.0
2015-May-03 14:34N 49°10' W 123°53'0 0.0
2015-May-03 13:33N 49°10' W 123°53'0 0.0
2015-May-03 12:32N 49°10' W 123°53'0 0.0
2015-May-03 11:25N 49°10' W 123°53'0 0.0
2015-May-03 10:29N 49°10' W 123°53'0 0.0
2015-May-03 09:33N 49°10' W 123°53'0 0.0
2015-May-03 08:33N 49°10' W 123°53'0 0.0
2015-May-03 07:33N 49°10' W 123°53'0 0.0
2015-May-03 06:33N 49°10' W 123°53'0 0.0
2015-May-03 05:26N 49°10' W 123°53'2 0.8
2015-May-03 02:33N 49°12' W 123°53'1918.5
2015-May-03 01:33N 49°06' W 123°26'1313.2
2015-May-03 00:33N 49°00' W 123°08'1010.6
2015-May-02 23:33N 49°03' W 123°23'2019.5
2015-May-02 22:34N 49°13' W 123°49'3 2.8
2015-May-02 21:33N 49°12' W 123°53'1818.0
2015-May-02 20:33N 49°07' W 123°27'1413.9
2015-May-02 19:34N 49°00' W 123°08'1212.1
2015-May-02 18:33N 49°04' W 123°25'1919.3
2015-May-02 17:33N 49°12' W 123°52'2 2.5
2015-May-02 16:34N 49°13' W 123°49'1918.6
2015-May-02 15:33N 49°05' W 123°23'1110.9
2015-May-02 14:33N 49°00' W 123°08'1211.6
2015-May-02 13:34N 49°03' W 123°25'1818.3
2015-May-02 12:33N 49°13' W 123°49'4 3.9
2015-May-02 11:26N 49°10' W 123°53'0 0.0
2015-May-02 08:19N 49°10' W 123°53'5 6.7
2015-May-02 07:33N 49°13' W 123°48'1818.1
2015-May-02 06:33N 49°05' W 123°23'1110.8
2015-May-02 05:33N 49°00' W 123°08'1413.6
2015-May-02 04:33N 49°05' W 123°27'1818.3
2015-May-02 03:33N 49°12' W 123°53'4 4.0
2015-May-02 02:33N 49°13' W 123°47'1918.8
2015-May-02 01:33N 49°05' W 123°22'1010.2
2015-May-02 00:34N 49°00' W 123°08'1413.9
2015-May-01 23:33N 49°05' W 123°28'1817.6
2015-May-01 22:33N 49°12' W 123°53'0 0.2
2015-May-01 21:33N 49°13' W 123°52'1818.5
2015-May-01 20:33N 49°07' W 123°26'1313.3
2015-May-01 19:33N 49°00' W 123°08'1111.4
2015-May-01 18:33N 49°03' W 123°25'1918.8
2015-May-01 17:33N 49°13' W 123°49'3 2.7
2015-May-01 16:34N 49°12' W 123°53'1817.8
2015-May-01 15:33N 49°07' W 123°27'1414.3
2015-May-01 14:34N 49°00' W 123°08'1211.7
2015-May-01 13:33N 49°04' W 123°25'1918.7
2015-May-01 12:33N 49°13' W 123°50'4 3.9
2015-May-01 11:33N 49°10' W 123°53'0 0.0
2015-May-01 10:26N 49°10' W 123°53'0 0.0
2015-May-01 09:32N 49°10' W 123°53'0 0.0
2015-May-01 08:31N 49°10' W 123°53'0 0.1
2015-May-01 07:33N 49°10' W 123°53'1616.2
2015-May-01 06:33N 49°07' W 123°29'1515.5
2015-May-01 05:34N 49°00' W 123°08'1312.4
2015-May-01 04:33N 49°04' W 123°26'1818.5
2015-May-01 03:33N 49°13' W 123°51'0 0.4
2015-May-01 02:33N 49°13' W 123°51'1817.6
2015-May-01 01:33N 49°06' W 123°25'1313.0
2015-May-01 00:33N 49°00' W 123°08'1313.3
2015-Apr-30 23:33N 49°05' W 123°27'1817.3
2015-Apr-30 22:33N 49°13' W 123°51'0 0.3
2015-Apr-30 21:33N 49°13' W 123°51'1818.5
2015-Apr-30 20:33N 49°06' W 123°25'1212.4
2015-Apr-30 19:33N 49°00' W 123°08'1212.2
2015-Apr-30 18:33N 49°04' W 123°26'1818.3
2015-Apr-30 17:34N 49°13' W 123°50'1 0.5
2015-Apr-30 16:33N 49°13' W 123°51'1818.0
2015-Apr-30 15:33N 49°06' W 123°26'1312.7
2015-Apr-30 14:33N 49°00' W 123°08'1212.4
2015-Apr-30 13:33N 49°04' W 123°26'1818.4
2015-Apr-30 12:33N 49°13' W 123°51'3 3.2
2015-Apr-30 11:33N 49°10' W 123°53'0 0.0
2015-Apr-30 10:32N 49°10' W 123°53'0 0.0
2015-Apr-30 09:33N 49°10' W 123°53'0 0.0
2015-Apr-30 08:34N 49°10' W 123°53'1 0.7
2015-Apr-30 07:34N 49°10' W 123°53'1716.9
2015-Apr-30 06:34N 49°07' W 123°28'1514.7
2015-Apr-30 05:33N 49°00' W 123°08'1211.7
2015-Apr-30 04:33N 49°04' W 123°25'1818.0
2015-Apr-30 03:34N 49°13' W 123°48'2 1.8
2015-Apr-30 02:33N 49°13' W 123°51'1918.6
2015-Apr-30 01:33N 49°05' W 123°25'1212.3
2015-Apr-30 00:34N 49°00' W 123°08'1414.0
2015-Apr-29 23:33N 49°05' W 123°28'1817.6
2015-Apr-29 22:33N 49°11' W 123°53'2 1.7
2015-Apr-29 21:34N 49°13' W 123°51'1918.7
2015-Apr-29 20:34N 49°06' W 123°25'1211.7
2015-Apr-29 19:31N 49°00' W 123°08'1212.9
2015-Apr-29 18:33N 49°04' W 123°26'1818.2
2015-Apr-29 17:33N 49°13' W 123°51'1 0.6
2015-Apr-29 16:33N 49°13' W 123°51'1818.0
2015-Apr-29 15:33N 49°06' W 123°26'1312.4
2015-Apr-29 14:29N 49°00' W 123°08'1212.4
2015-Apr-29 13:33N 49°04' W 123°25'1818.3
2015-Apr-29 12:34N 49°13' W 123°49'4 4.4
2015-Apr-29 11:33N 49°10' W 123°53'0 0.0
2015-Apr-29 10:32N 49°10' W 123°53'0 0.0
2015-Apr-29 09:32N 49°10' W 123°53'0 0.0
2015-Apr-29 08:32N 49°10' W 123°53'0 0.3
2015-Apr-29 07:33N 49°10' W 123°53'1616.5
2015-Apr-29 06:33N 49°07' W 123°29'1515.1
2015-Apr-29 05:33N 49°00' W 123°08'1312.7
2015-Apr-29 04:33N 49°04' W 123°26'1918.5
2015-Apr-29 03:33N 49°12' W 123°52'1 0.8
2015-Apr-29 02:33N 49°13' W 123°51'1919.3
2015-Apr-29 01:33N 49°05' W 123°24'1111.4
2015-Apr-29 00:33N 49°00' W 123°08'1514.7
2015-Apr-28 23:34N 49°05' W 123°29'1716.4
2015-Apr-28 22:32N 49°10' W 123°53'3 3.3
2015-Apr-28 21:33N 49°13' W 123°51'1919.3
2015-Apr-28 20:33N 49°06' W 123°24'1210.8
2015-Apr-28 19:28N 49°00' W 123°08'1213.6
2015-Apr-28 18:33N 49°04' W 123°26'1818.2
2015-Apr-28 17:33N 49°13' W 123°51'1 0.5
2015-Apr-28 16:33N 49°13' W 123°51'1818.2
2015-Apr-28 15:33N 49°06' W 123°26'1312.4
2015-Apr-28 14:32N 49°00' W 123°08'1212.2
2015-Apr-28 13:34N 49°04' W 123°25'1818.3
2015-Apr-28 12:33N 49°13' W 123°50'4 4.0
2015-Apr-28 11:33N 49°10' W 123°53'0 0.0
2015-Apr-28 10:27N 49°10' W 123°53'0 0.0
2015-Apr-28 08:26N 49°10' W 123°53'1 0.7
2015-Apr-28 07:33N 49°10' W 123°53'1717.0
2015-Apr-28 06:34N 49°07' W 123°28'1514.3
2015-Apr-28 05:32N 49°00' W 123°08'1313.1
2015-Apr-28 04:33N 49°04' W 123°27'1817.6
2015-Apr-28 03:33N 49°13' W 123°50'0 0.4
2015-Apr-28 02:33N 49°13' W 123°50'1817.6
2015-Apr-28 01:34N 49°06' W 123°25'1312.0
2015-Apr-28 00:30N 49°00' W 123°08'1515.4
2015-Apr-27 23:33N 49°05' W 123°29'1716.5
2015-Apr-27 22:32N 49°11' W 123°53'2 2.4
2015-Apr-27 21:33N 49°13' W 123°52'1818.4
2015-Apr-27 20:33N 49°05' W 123°26'1312.5
2015-Apr-27 19:33N 49°00' W 123°08'1212.1
2015-Apr-27 18:33N 49°04' W 123°25'1818.2
2015-Apr-27 17:33N 49°13' W 123°50'1 1.4
2015-Apr-27 16:32N 49°12' W 123°52'1818.0
2015-Apr-27 15:33N 49°06' W 123°27'1413.4
2015-Apr-27 14:32N 49°00' W 123°08'1212.2
2015-Apr-27 13:33N 49°04' W 123°25'1818.2
2015-Apr-27 12:33N 49°13' W 123°50'4 3.5
2015-Apr-27 11:24N 49°10' W 123°53'0 0.0
2015-Apr-27 10:32N 49°10' W 123°53'0 0.0
2015-Apr-27 09:11N 49°10' W 123°53'0 0.0
2015-Apr-27 08:31N 49°10' W 123°53'4 3.8
2015-Apr-27 07:33N 49°13' W 123°51'2020.4
2015-Apr-27 06:34N 49°04' W 123°22'1010.1
2015-Apr-27 05:33N 49°00' W 123°08'1413.7
2015-Apr-27 04:34N 49°05' W 123°27'1818.0
2015-Apr-27 03:34N 49°11' W 123°53'5 4.6
2015-Apr-27 02:33N 49°13' W 123°47'2020.5
2015-Apr-27 01:33N 49°03' W 123°19'8 7.8
2015-Apr-27 00:33N 49°00' W 123°08'1514.5
2015-Apr-26 23:33N 49°05' W 123°29'1717.0
2015-Apr-26 22:34N 49°11' W 123°53'3 2.5
2015-Apr-26 21:33N 49°13' W 123°51'1919.4
2015-Apr-26 20:33N 49°05' W 123°24'1111.4
2015-Apr-26 19:34N 49°00' W 123°08'1312.6
2015-Apr-26 18:33N 49°04' W 123°26'1818.1
2015-Apr-26 17:33N 49°13' W 123°50'3 3.4
2015-Apr-26 16:33N 49°10' W 123°53'0 0.1
2015-Apr-26 15:33N 49°10' W 123°53'0 0.0
2015-Apr-26 13:16N 49°10' W 123°53'0 0.0
2015-Apr-26 12:31N 49°10' W 123°53'0 0.0
2015-Apr-26 10:23N 49°10' W 123°53'0 0.0
2015-Apr-26 09:33N 49°10' W 123°53'0 0.0
2015-Apr-26 08:23N 49°10' W 123°53'0 0.0
2015-Apr-26 07:33N 49°10' W 123°53'0 0.0
2015-Apr-26 06:33N 49°10' W 123°53'0 0.0
2015-Apr-26 05:33N 49°10' W 123°53'0 0.0
2015-Apr-26 04:32N 49°10' W 123°53'0 0.0
2015-Apr-26 03:33N 49°10' W 123°53'2 2.4
2015-Apr-26 02:33N 49°12' W 123°53'1818.1
2015-Apr-26 01:33N 49°06' W 123°27'1413.9
2015-Apr-26 00:34N 49°00' W 123°08'1211.9
2015-Apr-25 23:33N 49°04' W 123°25'1818.2
2015-Apr-25 22:34N 49°13' W 123°49'4 3.8
2015-Apr-25 21:33N 49°10' W 123°53'1716.7
2015-Apr-25 20:33N 49°07' W 123°28'1514.9
2015-Apr-25 19:34N 49°00' W 123°08'1212.1
2015-Apr-25 18:33N 49°04' W 123°26'1818.3
2015-Apr-25 17:34N 49°13' W 123°50'1 1.1
2015-Apr-25 16:33N 49°13' W 123°52'1818.4
2015-Apr-25 15:33N 49°06' W 123°25'1312.7
2015-Apr-25 14:33N 49°00' W 123°08'1312.7
2015-Apr-25 13:33N 49°04' W 123°26'1817.5
2015-Apr-25 12:33N 49°13' W 123°50'4 2.1
2015-Apr-25 10:33N 49°10' W 123°53'0 0.0
2015-Apr-25 09:33N 49°10' W 123°53'0 0.0
2015-Apr-25 08:33N 49°10' W 123°53'1 1.1
2015-Apr-25 07:33N 49°11' W 123°53'1716.9
2015-Apr-25 06:34N 49°08' W 123°28'1514.9
2015-Apr-25 05:33N 49°00' W 123°08'1211.7
2015-Apr-25 04:33N 49°04' W 123°25'1918.7
2015-Apr-25 03:33N 49°13' W 123°50'1 1.0
2015-Apr-25 02:33N 49°13' W 123°51'1919.3
2015-Apr-25 01:33N 49°06' W 123°24'1211.7
2015-Apr-25 00:33N 49°00' W 123°08'1313.4
2015-Apr-24 23:33N 49°04' W 123°27'1818.5
2015-Apr-24 22:34N 49°12' W 123°53'2 1.5
2015-Apr-24 21:34N 49°13' W 123°51'1918.9
2015-Apr-24 20:33N 49°06' W 123°24'1211.8
2015-Apr-24 19:33N 49°00' W 123°08'1211.8
2015-Apr-24 18:33N 49°04' W 123°25'1918.6
2015-Apr-24 17:33N 49°13' W 123°50'1 1.3
2015-Apr-24 16:33N 49°13' W 123°52'1818.4
2015-Apr-24 15:34N 49°06' W 123°26'1312.9
2015-Apr-24 14:33N 49°00' W 123°08'1313.2
2015-Apr-24 13:33N 49°04' W 123°27'1717.5
2015-Apr-24 12:33N 49°13' W 123°50'4 3.7
2015-Apr-24 11:33N 49°10' W 123°53'0 0.1
2015-Apr-24 10:33N 49°10' W 123°53'0 0.0
2015-Apr-24 09:31N 49°10' W 123°53'0 0.0
2015-Apr-24 08:24N 49°10' W 123°53'1 1.7
2015-Apr-24 07:33N 49°11' W 123°53'1717.3
2015-Apr-24 06:33N 49°07' W 123°28'1514.5
2015-Apr-24 05:33N 49°00' W 123°08'1212.4
2015-Apr-24 04:33N 49°04' W 123°26'1919.1
2015-Apr-24 03:33N 49°12' W 123°52'2 1.7
2015-Apr-24 02:34N 49°13' W 123°50'2020.0
2015-Apr-24 01:33N 49°05' W 123°22'1010.3
2015-Apr-24 00:34N 49°00' W 123°08'1514.5
2015-Apr-23 23:33N 49°06' W 123°29'1717.1
2015-Apr-23 22:33N 49°11' W 123°53'2 2.2
2015-Apr-23 21:33N 49°13' W 123°51'1919.0
2015-Apr-23 20:33N 49°05' W 123°24'1211.4
2015-Apr-23 19:33N 49°00' W 123°08'1312.8
2015-Apr-23 18:34N 49°04' W 123°26'1818.4
2015-Apr-23 17:34N 49°13' W 123°51'0 0.3
2015-Apr-23 16:33N 49°13' W 123°51'1818.5
2015-Apr-23 15:34N 49°06' W 123°25'  

Dump ship's entire track history